Time;durP1;ratioP1;P1;durP2;ratioP2;P2;SDS_P1;SDS_P2;PMS_P1;PMS_P2;Temp;Humidity;BMP_temperature;BMP_pressure;BME280_temperature;BME280_humidity;BME280_pressure;Samples;Min_cycle;Max_cycle;Signal;HPM_P1;HPM_P2
2022/07/30 00:00:27;;;;;;;142.25;77.13;;;22.10;99.90;;;;;;5061637;28;20099;-75
2022/07/30 00:02:53;;;;;;;128.88;77.95;;;22.20;99.90;;;;;;5066982;28;20043;-75
2022/07/30 00:05:19;;;;;;;122.07;73.80;;;22.30;99.90;;;;;;5063848;28;20424;-75
2022/07/30 00:07:45;;;;;;;86.00;59.20;;;22.20;99.90;;;;;;5059584;28;20116;-75
2022/07/30 00:10:11;;;;;;;92.78;65.70;;;22.20;99.90;;;;;;5064103;28;20151;-75
2022/07/30 00:12:36;;;;;;;54.90;45.88;;;22.20;99.90;;;;;;5064990;28;20561;-75
2022/07/30 00:15:05;;;;;;;52.67;43.05;;;22.00;99.90;;;;;;5057761;28;20039;-74
2022/07/30 00:17:31;;;;;;;44.17;37.20;;;21.70;99.90;;;;;;5058357;28;20028;-75
2022/07/30 00:19:57;;;;;;;53.22;42.90;;;21.50;99.90;;;;;;5064562;28;20394;-75
2022/07/30 00:22:23;;;;;;;41.17;35.70;;;21.50;99.90;;;;;;5059715;28;20024;-75
2022/07/30 00:24:48;;;;;;;313.10;52.83;;;21.30;99.90;;;;;;5064506;28;20430;-74
2022/07/30 00:27:14;;;;;;;55.25;31.35;;;21.20;99.90;;;;;;5061540;28;20437;-75
2022/07/30 00:35:46;;;;;;;79.22;50.17;;;20.90;99.90;;;;;;5050742;28;20408;-74
2022/07/30 00:39:29;;;;;;;140.32;72.13;;;21.30;99.90;;;;;;5062059;28;20404;-75
2022/07/30 00:42:01;;;;;;;181.50;85.55;;;21.40;99.90;;;;;;5062723;28;20513;-74
2022/07/30 00:44:28;;;;;;;257.77;104.15;;;21.70;99.90;;;;;;5059375;28;20120;-75
2022/07/30 00:46:54;;;;;;;167.93;87.93;;;22.00;99.90;;;;;;5052585;28;20068;-76
2022/07/30 00:49:21;;;;;;;174.30;91.05;;;22.20;99.90;;;;;;5059272;28;20273;-75
2022/07/30 00:51:46;;;;;;;173.10;91.10;;;22.30;99.90;;;;;;5053446;28;20116;-76
2022/07/30 00:54:14;;;;;;;113.15;76.47;;;22.20;99.90;;;;;;5056166;28;20112;-76
2022/07/30 00:56:40;;;;;;;164.70;88.72;;;22.20;99.90;;;;;;5053313;28;20025;-75
2022/07/30 00:59:05;;;;;;;163.65;89.03;;;22.20;99.90;;;;;;5059099;28;20037;-75
2022/07/30 01:01:32;;;;;;;151.40;85.40;;;22.10;99.90;;;;;;5055649;28;20108;-75
2022/07/30 01:03:58;;;;;;;124.50;79.75;;;22.10;99.90;;;;;;5058433;28;20029;-75
2022/07/30 01:06:24;;;;;;;183.43;89.30;;;22.00;99.90;;;;;;5059057;28;20403;-75
2022/07/30 01:08:50;;;;;;;160.95;84.60;;;22.00;99.90;;;;;;5057454;28;20395;-75
2022/07/30 01:11:20;;;;;;;162.68;88.78;;;21.90;99.90;;;;;;5049815;28;20075;-75
2022/07/30 01:13:46;;;;;;;179.52;93.53;;;22.00;99.90;;;;;;5056964;28;20021;-74
2022/07/30 01:16:12;;;;;;;145.40;84.22;;;22.10;99.90;;;;;;5051372;28;20029;-75
2022/07/30 01:21:38;;;;;;;156.93;82.18;;;22.10;99.90;;;;;;5057384;28;20465;-74
2022/07/30 01:24:25;;;;;;;98.03;65.60;;;22.10;99.90;;;;;;5046965;28;20024;-75
2022/07/30 01:26:51;;;;;;;84.00;60.45;;;22.00;99.90;;;;;;5044944;28;20074;-75
2022/07/30 01:29:18;;;;;;;82.32;55.22;;;22.00;99.90;;;;;;5057343;28;20070;-74
2022/07/30 01:31:46;;;;;;;104.43;62.67;;;21.90;99.90;;;;;;5051891;28;20040;-75
2022/07/30 01:34:14;;;;;;;78.35;55.05;;;21.80;99.90;;;;;;5055929;28;20108;-75
2022/07/30 01:36:46;;;;;;;65.20;48.17;;;21.70;99.90;;;;;;5061424;28;20032;-75
2022/07/30 01:39:16;;;;;;;73.28;52.92;;;21.70;99.90;;;;;;5056085;28;20310;-75
2022/07/30 01:41:42;;;;;;;63.25;47.15;;;21.60;99.90;;;;;;5062249;28;20021;-75
2022/07/30 01:44:11;;;;;;;87.32;53.58;;;21.80;99.90;;;;;;5056081;28;20021;-75
2022/07/30 01:46:38;;;;;;;46.17;38.22;;;21.70;99.90;;;;;;5055665;28;20061;-75
2022/07/30 01:49:04;;;;;;;43.60;36.92;;;21.30;99.90;;;;;;5033114;28;20025;-75
2022/07/30 01:51:32;;;;;;;81.85;48.75;;;20.70;99.90;;;;;;5041642;28;20033;-75
2022/07/30 01:53:59;;;;;;;97.03;54.42;;;20.50;99.90;;;;;;5040503;28;20079;-76
2022/07/30 01:56:26;;;;;;;94.47;56.28;;;20.80;99.90;;;;;;5041639;28;20029;-76
2022/07/30 01:58:54;;;;;;;82.32;55.20;;;21.00;99.90;;;;;;5041545;28;20064;-76
2022/07/30 02:01:20;;;;;;;91.18;53.90;;;21.20;99.90;;;;;;5041541;28;20029;-77
2022/07/30 02:03:48;;;;;;;87.50;53.17;;;21.30;99.90;;;;;;5042731;28;20491;-76
2022/07/30 02:06:20;;;;;;;68.30;47.35;;;21.30;99.90;;;;;;5040977;28;20427;-76
2022/07/30 02:08:59;;;;;;;79.72;51.55;;;21.20;99.90;;;;;;5042203;28;20036;-76
2022/07/30 02:14:25;;;;;;;71.22;45.97;;;21.20;99.90;;;;;;5034686;28;20388;-76
2022/07/30 02:16:55;;;;;;;69.93;44.95;;;21.20;99.90;;;;;;5038669;28;20021;-76
2022/07/30 02:19:25;;;;;;;58.63;44.08;;;21.10;99.90;;;;;;5043523;28;20065;-76
2022/07/30 02:22:06;;;;;;;54.45;40.10;;;21.10;99.90;;;;;;5029304;28;20036;-75
2022/07/30 02:24:35;;;;;;;57.13;41.28;;;21.10;99.90;;;;;;5044194;28;20037;-76
2022/07/30 02:27:09;;;;;;;64.28;43.92;;;21.10;99.90;;;;;;5033195;28;20029;-76
2022/07/30 02:29:36;;;;;;;44.30;33.10;;;21.10;99.90;;;;;;5044046;28;20100;-76
2022/07/30 02:32:09;;;;;;;36.35;30.08;;;21.10;99.90;;;;;;5039475;28;20463;-75
2022/07/30 02:34:39;;;;;;;56.90;39.90;;;21.00;99.90;;;;;;5041398;28;20025;-75
2022/07/30 02:37:07;;;;;;;61.05;42.83;;;20.70;99.90;;;;;;5037731;28;20483;-78
2022/07/30 02:39:35;;;;;;;70.30;46.83;;;20.80;99.90;;;;;;5044013;28;20033;-78
2022/07/30 02:42:02;;;;;;;54.20;43.33;;;21.00;99.90;;;;;;5040136;28;20029;-78
2022/07/30 02:44:29;;;;;;;72.10;49.60;;;21.10;99.90;;;;;;5042320;28;20449;-77
2022/07/30 02:46:56;;;;;;;50.25;40.67;;;21.00;99.90;;;;;;5038947;28;20063;-78
2022/07/30 02:49:23;;;;;;;76.72;51.60;;;21.10;99.90;;;;;;5039390;28;20021;-78
2022/07/30 02:51:50;;;;;;;72.18;50.10;;;21.20;99.90;;;;;;5046932;28;20031;-78
2022/07/30 02:54:18;;;;;;;66.18;44.25;;;21.20;99.90;;;;;;5039782;28;20079;-78
2022/07/30 02:56:46;;;;;;;52.00;40.15;;;21.20;99.90;;;;;;5043567;28;20029;-78
2022/07/30 02:59:13;;;;;;;53.28;40.05;;;21.10;99.90;;;;;;5043979;28;20029;-77
2022/07/30 03:01:40;;;;;;;59.90;42.17;;;21.00;99.90;;;;;;5035456;28;20021;-77
2022/07/30 03:04:07;;;;;;;67.70;45.78;;;21.00;99.90;;;;;;5043690;28;20061;-77
2022/07/30 03:06:35;;;;;;;53.17;40.00;;;21.00;99.90;;;;;;5040226;28;20028;-78
2022/07/30 03:09:04;;;;;;;76.22;46.80;;;21.20;99.90;;;;;;5038940;28;20042;-78
2022/07/30 03:11:33;;;;;;;63.30;45.15;;;21.20;99.90;;;;;;5046178;28;20068;-78
2022/07/30 03:13:58;;;;;;;41.35;35.08;;;21.30;99.90;;;;;;5043618;28;20021;-78
2022/07/30 03:16:26;;;;;;;34.00;29.70;;;21.30;99.90;;;;;;5036080;28;20090;-77
2022/07/30 03:18:53;;;;;;;33.97;30.35;;;21.00;99.90;;;;;;5042004;28;20086;-78
2022/07/30 03:21:24;;;;;;;35.67;31.80;;;20.70;99.90;;;;;;5038200;28;20025;-79
2022/07/30 03:23:55;;;;;;;43.42;34.78;;;20.70;99.90;;;;;;5042337;28;20021;-78
2022/07/30 03:26:23;;;;;;;39.63;33.67;;;20.70;99.90;;;;;;5039977;28;20048;-78
2022/07/30 03:28:50;;;;;;;41.22;32.97;;;20.70;99.90;;;;;;5040538;28;20033;-77
2022/07/30 03:31:16;;;;;;;37.83;32.40;;;20.60;99.90;;;;;;5039376;28;20022;-77
2022/07/30 03:33:42;;;;;;;30.63;27.15;;;20.60;99.90;;;;;;5042942;28;20037;-77
2022/07/30 03:36:11;;;;;;;36.60;29.40;;;20.60;99.90;;;;;;5038408;28;20048;-77
2022/07/30 03:38:38;;;;;;;37.03;29.35;;;20.60;99.90;;;;;;5036631;28;20111;-77
2022/07/30 03:41:06;;;;;;;28.70;25.60;;;20.50;99.90;;;;;;5035626;28;20021;-78
2022/07/30 03:43:34;;;;;;;26.98;20.88;;;20.60;99.90;;;;;;5036812;28;20028;-77
2022/07/30 03:46:04;;;;;;;33.55;23.50;;;20.50;99.90;;;;;;5038794;28;20023;-78
2022/07/30 03:48:33;;;;;;;24.33;21.73;;;20.50;99.90;;;;;;5043848;28;20083;-79
2022/07/30 03:51:00;;;;;;;31.85;24.40;;;20.60;99.90;;;;;;5038155;28;20049;-79
2022/07/30 03:53:26;;;;;;;28.85;22.65;;;20.60;99.90;;;;;;5040528;28;20503;-77
2022/07/30 03:55:52;;;;;;;31.80;25.23;;;20.60;99.90;;;;;;5038835;28;20024;-78
2022/07/30 03:58:18;;;;;;;29.67;24.55;;;20.70;99.90;;;;;;5040941;28;20506;-78
2022/07/30 04:00:48;;;;;;;29.85;23.48;;;20.80;99.90;;;;;;5038059;28;20078;-78
2022/07/30 04:03:24;;;;;;;34.00;24.45;;;20.80;99.90;;;;;;5043507;28;20032;-78
2022/07/30 04:05:50;;;;;;;21.58;19.48;;;20.90;99.90;;;;;;5036683;28;20060;-78
2022/07/30 04:08:15;;;;;;;27.60;23.73;;;20.90;99.90;;;;;;5042182;28;20056;-78
2022/07/30 04:10:41;;;;;;;32.88;24.02;;;20.90;99.90;;;;;;5037332;28;20034;-78
2022/07/30 04:13:07;;;;;;;38.00;23.77;;;20.90;99.90;;;;;;5041019;28;20221;-78
2022/07/30 04:15:42;;;;;;;26.23;21.02;;;21.00;99.90;;;;;;5037179;28;20021;-78
2022/07/30 04:18:10;;;;;;;27.23;20.25;;;21.10;99.90;;;;;;5037786;28;20037;-78
2022/07/30 04:20:40;;;;;;;19.67;17.70;;;21.10;99.90;;;;;;5041340;28;20449;-79
2022/07/30 04:23:08;;;;;;;23.35;18.77;;;21.10;99.90;;;;;;5020084;28;20026;-78
2022/07/30 04:25:34;;;;;;;27.63;21.23;;;21.10;99.90;;;;;;5035717;28;20025;-80
2022/07/30 04:28:00;;;;;;;32.95;21.02;;;21.20;99.90;;;;;;5039333;28;20022;-78
2022/07/30 04:30:26;;;;;;;31.13;22.75;;;21.20;99.90;;;;;;5047572;28;20051;-78
2022/07/30 04:32:52;;;;;;;27.33;21.13;;;21.20;99.90;;;;;;5045654;28;20430;-78
2022/07/30 04:35:30;;;;;;;33.17;24.05;;;21.30;99.90;;;;;;5036487;28;20029;-77
2022/07/30 04:37:56;;;;;;;27.48;22.25;;;21.40;99.90;;;;;;5044933;28;20049;-78
2022/07/30 04:40:21;;;;;;;26.38;18.75;;;21.40;99.90;;;;;;5035054;28;20079;-78
2022/07/30 04:42:47;;;;;;;20.92;17.73;;;21.50;99.90;;;;;;5037852;28;20026;-78
2022/07/30 04:45:13;;;;;;;21.13;18.30;;;21.50;99.90;;;;;;5040870;28;20037;-77
2022/07/30 04:47:39;;;;;;;20.88;17.60;;;21.50;99.90;;;;;;5037165;28;20407;-78
2022/07/30 04:50:09;;;;;;;22.83;18.90;;;21.60;99.90;;;;;;5041678;28;20032;-77
2022/07/30 04:52:35;;;;;;;20.00;17.25;;;21.70;99.90;;;;;;5040399;28;20032;-77
2022/07/30 04:55:05;;;;;;;21.00;17.83;;;21.60;99.90;;;;;;5035902;28;20037;-78
2022/07/30 04:57:32;;;;;;;20.80;17.75;;;21.60;99.90;;;;;;5039731;28;20060;-78
2022/07/30 04:59:58;;;;;;;24.05;18.02;;;21.70;99.90;;;;;;5039284;28;20039;-77
2022/07/30 05:02:28;;;;;;;21.23;17.80;;;21.80;99.90;;;;;;5046769;28;20100;-77
2022/07/30 05:04:55;;;;;;;17.98;16.10;;;21.90;99.90;;;;;;5036786;28;20387;-77
2022/07/30 05:07:21;;;;;;;16.45;13.88;;;21.80;99.90;;;;;;5042900;28;20475;-78
2022/07/30 05:09:47;;;;;;;23.83;17.88;;;21.80;99.90;;;;;;5038899;28;20030;-78
2022/07/30 05:12:16;;;;;;;18.38;15.73;;;21.90;99.90;;;;;;5036941;28;20104;-77
2022/07/30 05:14:41;;;;;;;20.42;16.38;;;22.00;99.90;;;;;;5041754;28;20094;-78
2022/07/30 05:17:07;;;;;;;21.63;16.90;;;22.10;99.90;;;;;;5036682;28;20480;-79
2022/07/30 05:19:36;;;;;;;18.83;16.85;;;22.10;99.90;;;;;;5039571;28;20042;-79
2022/07/30 05:22:02;;;;;;;19.50;17.30;;;22.20;99.90;;;;;;5043329;28;20060;-79
2022/07/30 05:24:28;;;;;;;15.73;14.23;;;22.20;99.90;;;;;;5042357;28;20033;-79
2022/07/30 05:26:53;;;;;;;15.77;14.20;;;22.30;99.90;;;;;;5039332;28;20100;-78
2022/07/30 05:29:22;;;;;;;18.15;15.35;;;22.20;99.90;;;;;;5045523;28;20467;-80
2022/07/30 05:31:48;;;;;;;16.92;15.20;;;22.10;99.90;;;;;;5040070;28;20100;-79
2022/07/30 05:34:13;;;;;;;20.17;16.40;;;22.00;99.90;;;;;;5044871;28;20089;-79
2022/07/30 05:36:39;;;;;;;15.50;14.00;;;22.10;99.90;;;;;;5044491;28;20376;-79
2022/07/30 05:39:08;;;;;;;17.83;13.85;;;22.20;99.90;;;;;;5036843;28;20045;-79
2022/07/30 05:41:34;;;;;;;15.05;12.30;;;22.20;99.90;;;;;;5040801;28;20029;-78
2022/07/30 05:44:00;;;;;;;14.27;12.82;;;22.20;99.90;;;;;;5041848;28;20033;-78
2022/07/30 05:46:26;;;;;;;15.25;13.73;;;22.10;99.90;;;;;;5041797;28;20107;-77
2022/07/30 05:48:52;;;;;;;14.95;13.40;;;22.10;99.90;;;;;;5040721;28;20028;-77
2022/07/30 05:51:19;;;;;;;13.20;11.93;;;22.00;99.90;;;;;;5040974;28;20036;-78
2022/07/30 05:53:45;;;;;;;16.77;14.98;;;21.90;99.90;;;;;;5037495;28;20029;-77
2022/07/30 05:56:11;;;;;;;15.07;13.70;;;22.00;99.90;;;;;;5040867;28;20029;-78
2022/07/30 05:58:37;;;;;;;19.83;16.05;;;22.10;99.90;;;;;;5043580;28;20090;-77
2022/07/30 06:01:03;;;;;;;20.65;18.40;;;22.30;99.90;;;;;;5038457;28;20031;-78
2022/07/30 06:03:28;;;;;;;17.92;15.80;;;22.50;99.90;;;;;;5046937;28;20454;-78
2022/07/30 06:05:54;;;;;;;19.73;15.70;;;22.60;99.90;;;;;;5044459;28;20072;-77
2022/07/30 06:08:19;;;;;;;17.73;16.02;;;22.60;99.90;;;;;;5043563;28;20028;-79
2022/07/30 06:10:45;;;;;;;18.23;16.42;;;22.70;99.90;;;;;;5040179;28;20022;-78
2022/07/30 06:13:11;;;;;;;15.43;13.82;;;22.80;99.90;;;;;;5042522;28;20025;-77
2022/07/30 06:15:36;;;;;;;18.27;16.10;;;22.90;99.90;;;;;;5040791;28;20477;-78
2022/07/30 06:18:02;;;;;;;17.63;15.85;;;23.00;99.90;;;;;;5047221;28;20098;-74
2022/07/30 06:20:28;;;;;;;15.88;14.23;;;23.10;99.90;;;;;;5041430;28;20029;-75
2022/07/30 06:22:54;;;;;;;16.95;15.25;;;23.10;99.90;;;;;;5041911;28;20029;-75
2022/07/30 06:25:19;;;;;;;13.85;12.55;;;23.00;99.90;;;;;;5042389;28;20033;-75
2022/07/30 06:27:45;;;;;;;15.68;14.18;;;23.10;99.90;;;;;;5039870;28;20037;-76
2022/07/30 06:30:11;;;;;;;14.13;12.93;;;23.10;99.90;;;;;;5041869;28;20484;-74
2022/07/30 06:32:37;;;;;;;14.75;13.18;;;23.10;99.90;;;;;;5047357;28;20377;-77
2022/07/30 06:35:03;;;;;;;14.70;13.27;;;23.10;99.90;;;;;;5038959;28;20021;-75
2022/07/30 06:37:29;;;;;;;15.27;13.68;;;23.20;99.90;;;;;;5037457;28;20079;-75
2022/07/30 06:39:54;;;;;;;16.75;15.10;;;23.30;99.90;;;;;;5043771;28;20030;-75
2022/07/30 06:42:20;;;;;;;16.38;14.30;;;23.40;99.90;;;;;;5039107;28;20029;-75
2022/07/30 06:44:46;;;;;;;14.77;13.38;;;23.40;99.90;;;;;;5042440;28;20042;-75
2022/07/30 06:47:12;;;;;;;17.17;15.65;;;23.50;99.90;;;;;;5038834;28;20029;-75
2022/07/30 06:49:38;;;;;;;15.38;13.88;;;23.70;99.90;;;;;;5040372;28;20037;-75
2022/07/30 06:52:07;;;;;;;20.30;15.38;;;23.60;99.90;;;;;;5035359;28;20051;-75
2022/07/30 06:54:35;;;;;;;14.80;12.80;;;23.70;99.90;;;;;;5038937;28;20029;-75
2022/07/30 06:57:01;;;;;;;12.75;11.27;;;23.90;99.90;;;;;;5034185;28;20033;-76
2022/07/30 06:59:27;;;;;;;11.23;10.18;;;24.00;99.90;;;;;;5039926;28;20541;-77
2022/07/30 07:01:53;;;;;;;12.68;10.70;;;24.00;99.90;;;;;;5035162;28;20053;-78
2022/07/30 07:04:19;;;;;;;11.35;10.30;;;24.10;99.90;;;;;;5036958;28;20499;-76
2022/07/30 07:06:44;;;;;;;13.52;12.18;;;24.00;99.90;;;;;;5041729;28;20021;-76
2022/07/30 07:09:10;;;;;;;10.82;8.75;;;24.20;99.90;;;;;;5040159;28;20033;-76
2022/07/30 07:11:36;;;;;;;10.43;9.52;;;24.10;99.90;;;;;;5034892;28;20545;-76
2022/07/30 07:14:01;;;;;;;8.60;7.60;;;24.30;99.90;;;;;;5039919;28;20248;-75
2022/07/30 07:16:27;;;;;;;9.65;8.25;;;24.50;99.90;;;;;;5032930;28;20033;-76
2022/07/30 07:18:54;;;;;;;8.23;6.95;;;24.40;99.90;;;;;;5036446;28;20037;-76
2022/07/30 07:21:20;;;;;;;8.35;7.28;;;23.90;99.90;;;;;;5019586;28;20021;-76
2022/07/30 07:23:49;;;;;;;8.27;7.57;;;23.60;99.90;;;;;;5036239;28;20079;-75
2022/07/30 07:26:16;;;;;;;9.38;8.57;;;23.80;99.90;;;;;;5036107;28;20063;-76
2022/07/30 07:28:42;;;;;;;8.88;8.07;;;24.00;99.90;;;;;;5033440;28;20021;-75
2022/07/30 07:31:08;;;;;;;7.05;6.35;;;24.10;99.90;;;;;;5035035;28;20483;-76
2022/07/30 07:33:34;;;;;;;8.45;7.40;;;24.10;99.90;;;;;;5039320;28;20408;-75
2022/07/30 07:36:00;;;;;;;8.27;7.55;;;24.40;99.90;;;;;;5038483;28;20029;-76
2022/07/30 07:38:25;;;;;;;7.85;7.05;;;24.60;99.90;;;;;;5038202;28;20531;-76
2022/07/30 07:40:52;;;;;;;7.13;6.53;;;25.10;99.90;;;;;;5034683;28;20029;-76
2022/07/30 07:43:17;;;;;;;7.45;6.60;;;25.30;99.90;;;;;;5037692;28;20037;-76
2022/07/30 07:45:44;;;;;;;6.90;6.20;;;25.40;99.90;;;;;;5040909;28;20025;-76
2022/07/30 07:48:11;;;;;;;6.80;6.13;;;25.60;99.90;;;;;;5037614;28;20025;-76
2022/07/30 07:50:37;;;;;;;8.57;5.70;;;25.70;99.90;;;;;;5032878;28;20657;-75
2022/07/30 07:53:04;;;;;;;7.38;5.60;;;25.80;99.90;;;;;;5035937;28;20029;-75
2022/07/30 07:55:30;;;;;;;8.05;5.60;;;25.90;99.90;;;;;;5035839;28;20158;-74
2022/07/30 07:57:55;;;;;;;6.53;5.40;;;25.90;99.90;;;;;;5034609;28;20244;-76
2022/07/30 08:00:21;;;;;;;6.10;5.60;;;25.90;99.90;;;;;;5036925;28;20555;-76
2022/07/30 08:02:48;;;;;;;6.97;5.22;;;25.90;99.90;;;;;;5041059;28;20392;-77
2022/07/30 08:05:14;;;;;;;6.07;5.47;;;25.60;99.90;;;;;;5037505;28;20094;-76
2022/07/30 08:07:42;;;;;;;5.45;4.95;;;25.20;99.90;;;;;;5035056;28;20025;-75
2022/07/30 08:10:10;;;;;;;5.40;4.90;;;25.30;99.90;;;;;;5028152;28;20112;-77
2022/07/30 08:12:35;;;;;;;7.32;4.75;;;24.60;99.90;;;;;;5033025;28;20534;-85
2022/07/30 08:15:02;;;;;;;5.50;4.95;;;24.40;99.90;;;;;;5040016;28;20056;-80
2022/07/30 08:17:27;;;;;;;4.82;4.43;;;24.10;99.90;;;;;;5037582;28;20029;-75
2022/07/30 08:19:56;;;;;;;5.13;4.63;;;23.90;99.90;;;;;;5038364;28;20404;-83
2022/07/30 08:22:22;;;;;;;6.55;5.07;;;23.90;99.90;;;;;;5035280;28;20047;-81
2022/07/30 08:24:48;;;;;;;4.88;4.38;;;23.80;99.90;;;;;;5033276;28;20594;-74
2022/07/30 08:27:13;;;;;;;4.97;4.57;;;23.70;99.90;;;;;;5033531;28;20033;-76
2022/07/30 08:29:39;;;;;;;4.38;4.07;;;23.80;99.90;;;;;;5038575;28;20029;-75
2022/07/30 08:32:05;;;;;;;4.97;4.35;;;24.00;99.90;;;;;;5037643;28;20032;-76
2022/07/30 08:34:31;;;;;;;4.68;4.20;;;24.10;99.90;;;;;;5037866;28;20028;-74
2022/07/30 08:36:57;;;;;;;4.72;4.32;;;24.20;99.90;;;;;;5033504;28;20043;-86
2022/07/30 08:39:22;;;;;;;5.13;4.63;;;24.10;99.90;;;;;;5036557;28;20056;-77
2022/07/30 08:41:48;;;;;;;4.95;4.55;;;24.60;99.90;;;;;;5034195;28;20028;-85
2022/07/30 08:44:17;;;;;;;5.80;4.82;;;25.10;99.90;;;;;;5036938;28;20036;-79
2022/07/30 08:46:44;;;;;;;5.28;4.28;;;25.40;99.90;;;;;;5044409;28;20021;-78
2022/07/30 08:49:11;;;;;;;5.60;4.13;;;25.50;99.90;;;;;;5035695;28;20022;-80
2022/07/30 08:51:37;;;;;;;7.05;3.83;;;25.50;99.90;;;;;;5032563;28;20074;-84
2022/07/30 08:54:05;;;;;;;4.35;3.30;;;25.40;99.90;;;;;;5025083;28;20399;-79
2022/07/30 08:56:33;;;;;;;3.80;3.38;;;25.40;99.90;;;;;;5035188;28;20041;-80
2022/07/30 08:59:00;;;;;;;3.40;3.10;;;25.50;99.90;;;;;;5035051;28;20736;-77
2022/07/30 09:01:26;;;;;;;2.75;2.13;;;25.80;99.90;;;;;;5036112;28;20045;-77
2022/07/30 09:03:52;;;;;;;1.80;1.70;;;26.10;99.90;;;;;;5042446;28;20021;-77
2022/07/30 09:06:18;;;;;;;1.70;1.60;;;26.20;99.90;;;;;;5039196;28;20114;-77
2022/07/30 09:08:44;;;;;;;2.10;1.75;;;26.20;99.90;;;;;;5040123;28;20032;-77
2022/07/30 09:11:10;;;;;;;2.38;1.90;;;26.70;99.90;;;;;;5039250;28;20673;-80
2022/07/30 09:13:37;;;;;;;2.10;1.60;;;27.00;99.90;;;;;;5046478;28;20471;-76
2022/07/30 09:16:05;;;;;;;1.80;1.70;;;27.00;99.90;;;;;;5043092;28;20036;-78
2022/07/30 09:18:43;;;;;;;2.22;1.83;;;27.20;99.90;;;;;;5041126;28;20084;-76
2022/07/30 09:21:20;;;;;;;2.80;1.88;;;27.30;99.90;;;;;;5034636;28;20033;-76
2022/07/30 09:24:08;;;;;;;1.40;1.30;;;27.20;99.90;;;;;;5043276;28;20124;-77
2022/07/30 09:27:01;;;;;;;1.60;1.50;;;27.00;99.90;;;;;;5042512;28;20036;-77
2022/07/30 09:29:30;;;;;;;2.88;1.20;;;26.80;99.90;;;;;;5035995;28;20115;-76
2022/07/30 09:31:58;;;;;;;1.45;1.35;;;26.90;99.90;;;;;;5038301;28;20013;-78
2022/07/30 09:34:25;;;;;;;1.85;1.67;;;26.80;99.90;;;;;;5041897;28;20115;-77
2022/07/30 09:36:51;;;;;;;2.00;1.60;;;26.90;99.90;;;;;;5028080;28;20444;-77
2022/07/30 09:39:37;;;;;;;1.67;1.58;;;27.10;99.90;;;;;;5033341;28;20140;-76
2022/07/30 09:42:15;;;;;;;3.40;1.67;;;27.60;99.90;;;;;;5028331;28;20025;-77
2022/07/30 09:44:41;;;;;;;1.83;1.70;;;27.80;99.90;;;;;;5039897;28;20072;-76
2022/07/30 09:47:06;;;;;;;2.97;1.25;;;28.20;99.90;;;;;;5035319;28;20083;-76
2022/07/30 09:49:32;;;;;;;1.85;1.40;;;28.50;99.90;;;;;;5041159;28;20035;-76
2022/07/30 09:51:58;;;;;;;1.45;1.35;;;28.90;99.90;;;;;;5036815;28;20403;-77
2022/07/30 09:54:43;;;;;;;1.73;1.40;;;29.30;99.90;;;;;;5040430;28;20033;-76
2022/07/30 09:57:09;;;;;;;1.20;1.13;;;29.50;99.90;;;;;;5030572;28;20029;-76
2022/07/30 09:59:37;;;;;;;6.25;1.60;;;29.80;99.90;;;;;;5040816;28;20407;-76
2022/07/30 10:02:05;;;;;;;4.78;1.35;;;30.00;99.90;;;;;;5038807;28;20029;-77
2022/07/30 10:04:32;;;;;;;0.98;0.98;;;30.20;99.90;;;;;;5039449;28;20041;-77
2022/07/30 10:07:00;;;;;;;1.02;1.02;;;30.30;99.90;;;;;;5035807;28;20039;-78
2022/07/30 10:09:34;;;;;;;4.22;1.30;;;30.40;99.90;;;;;;5033568;28;20052;-77
2022/07/30 10:12:03;;;;;;;2.35;1.10;;;30.60;99.90;;;;;;5041411;28;20029;-77
2022/07/30 10:14:34;;;;;;;4.38;1.27;;;30.80;99.90;;;;;;5040987;28;20083;-77
2022/07/30 10:17:01;;;;;;;1.33;1.20;;;31.00;99.90;;;;;;5031795;28;20104;-76
2022/07/30 10:19:27;;;;;;;1.48;1.10;;;31.20;99.90;;;;;;5039117;28;20036;-77
2022/07/30 10:21:56;;;;;;;1.20;1.00;;;31.30;99.90;;;;;;5034077;28;20029;-78
2022/07/30 10:24:23;;;;;;;1.23;1.05;;;31.30;99.90;;;;;;5041357;28;20025;-79
2022/07/30 10:26:50;;;;;;;1.08;0.93;;;31.20;99.90;;;;;;5035855;28;20025;-79
2022/07/30 10:29:18;;;;;;;1.13;0.90;;;31.30;99.90;;;;;;5038234;28;20025;-78
2022/07/30 10:31:45;;;;;;;1.10;0.88;;;31.40;99.90;;;;;;5037249;28;20043;-76
2022/07/30 10:34:12;;;;;;;1.20;1.10;;;31.40;99.90;;;;;;5040553;28;20029;-76
2022/07/30 10:36:43;;;;;;;0.90;0.90;;;31.50;99.90;;;;;;5034533;28;20060;-77
2022/07/30 10:39:14;;;;;;;1.55;1.10;;;31.70;99.90;;;;;;5040611;28;20673;-77
2022/07/30 10:41:45;;;;;;;1.30;1.20;;;31.70;99.90;;;;;;5035858;28;20045;-77
2022/07/30 10:44:37;;;;;;;1.33;1.23;;;31.70;99.90;;;;;;5038694;28;20064;-76
2022/07/30 10:47:12;;;;;;;0.93;0.93;;;31.50;99.90;;;;;;5027188;28;20052;-77
2022/07/30 10:49:39;;;;;;;1.30;1.20;;;31.50;99.90;;;;;;5042752;28;20512;-77
2022/07/30 10:52:05;;;;;;;1.65;1.27;;;31.50;99.90;;;;;;5033431;28;20045;-78
2022/07/30 10:54:33;;;;;;;2.45;1.70;;;31.50;99.90;;;;;;5039704;28;20039;-77
2022/07/30 10:57:06;;;;;;;5.13;3.25;;;31.50;99.90;;;;;;5035357;28;20053;-77
2022/07/30 10:59:51;;;;;;;5.20;3.53;;;31.00;99.90;;;;;;5039446;28;20098;-76
2022/07/30 11:02:18;;;;;;;3.83;3.40;;;30.50;99.90;;;;;;5040614;28;20029;-79
2022/07/30 11:04:44;;;;;;;5.20;3.72;;;30.20;99.90;;;;;;5041808;28;20367;-77
2022/07/30 11:07:28;;;;;;;4.10;3.75;;;30.20;99.90;;;;;;5036059;28;20484;-77
2022/07/30 11:09:59;;;;;;;3.90;3.50;;;29.70;99.90;;;;;;5036110;28;20026;-77
2022/07/30 11:12:46;;;;;;;3.00;2.70;;;29.60;99.90;;;;;;5033478;28;20083;-78
2022/07/30 11:15:12;;;;;;;2.80;2.42;;;29.70;99.90;;;;;;5031408;28;20283;-80
2022/07/30 11:18:10;;;;;;;2.60;2.40;;;29.80;99.90;;;;;;5038078;28;20037;-78
2022/07/30 11:20:36;;;;;;;1.60;1.50;;;30.30;99.90;;;;;;5026983;28;20108;-77
2022/07/30 11:23:11;;;;;;;2.00;1.30;;;30.80;99.90;;;;;;5038144;28;20052;-77
2022/07/30 11:25:39;;;;;;;2.47;1.48;;;31.20;99.90;;;;;;5039130;28;20029;-77
2022/07/30 11:28:05;;;;;;;2.90;2.65;;;31.80;99.90;;;;;;5042460;28;20033;-78
2022/07/30 11:30:33;;;;;;;3.53;2.70;;;32.40;99.90;;;;;;5037694;28;20022;-78
2022/07/30 11:33:20;;;;;;;7.03;4.50;;;32.70;99.90;;;;;;5040006;28;20033;-77
2022/07/30 11:36:08;;;;;;;4.32;3.92;;;32.40;99.90;;;;;;5042374;28;20031;-78
2022/07/30 11:38:50;;;;;;;4.97;3.42;;;31.30;99.90;;;;;;5037908;28;20108;-78
2022/07/30 11:41:15;;;;;;;5.70;3.15;;;30.60;99.90;;;;;;5046894;28;20013;-77
2022/07/30 11:43:41;;;;;;;4.50;3.38;;;29.90;99.90;;;;;;5041170;28;21271;-77
2022/07/30 11:46:12;;;;;;;1.95;1.70;;;30.20;99.90;;;;;;5039574;28;20017;-80
2022/07/30 11:49:01;;;;;;;1.85;1.40;;;30.80;99.90;;;;;;5041480;28;20040;-79
2022/07/30 11:51:28;;;;;;;1.48;1.38;;;31.50;99.90;;;;;;5030719;28;20033;-78
2022/07/30 11:54:05;;;;;;;1.20;1.10;;;32.60;99.90;;;;;;5041415;28;20025;-78
2022/07/30 11:56:32;;;;;;;0.90;0.90;;;33.30;99.90;;;;;;5033743;28;20029;-78
2022/07/30 11:59:06;;;;;;;0.93;0.90;;;33.60;99.90;;;;;;5038133;28;20033;-78
2022/07/30 12:01:33;;;;;;;2.83;1.20;;;33.70;99.90;;;;;;5041226;28;20025;-79
2022/07/30 12:04:08;;;;;;;8.05;1.10;;;33.50;99.90;;;;;;5042126;28;20022;-80
2022/07/30 12:06:46;;;;;;;3.72;1.17;;;33.20;99.90;;;;;;5036234;28;20022;-80
2022/07/30 12:09:12;;;;;;;1.35;0.98;;;32.90;99.90;;;;;;5031513;28;20526;-81
2022/07/30 12:11:38;;;;;;;1.10;1.02;;;32.90;99.90;;;;;;5039090;28;20100;-80
2022/07/30 12:14:05;;;;;;;3.97;1.20;;;32.90;99.90;;;;;;5029097;28;20056;-78
2022/07/30 12:16:32;;;;;;;1.85;1.33;;;33.10;99.90;;;;;;5037224;28;20021;-82
2022/07/30 12:19:03;;;;;;;1.33;0.90;;;33.30;99.90;;;;;;5037724;28;20509;-78
2022/07/30 12:21:29;;;;;;;8.80;1.07;;;33.60;99.90;;;;;;5038937;28;20060;-79
2022/07/30 12:23:57;;;;;;;0.93;0.80;;;33.80;99.90;;;;;;5038934;28;20526;-79
2022/07/30 12:26:32;;;;;;;0.80;0.80;;;34.00;99.90;;;;;;5038750;28;20028;-79
2022/07/30 12:29:03;;;;;;;0.80;0.80;;;34.30;99.90;;;;;;5037459;28;20029;-77
2022/07/30 12:31:29;;;;;;;0.77;0.70;;;34.50;99.90;;;;;;5038178;28;20104;-80
2022/07/30 12:33:55;;;;;;;0.85;0.85;;;34.50;99.00;;;;;;5039555;28;20383;-80
2022/07/30 12:36:34;;;;;;;1.02;0.82;;;34.30;99.90;;;;;;5038463;28;20029;-79
2022/07/30 12:39:02;;;;;;;0.73;0.60;;;34.30;99.90;;;;;;5037037;28;20211;-79
2022/07/30 12:41:43;;;;;;;0.57;0.57;;;34.70;99.90;;;;;;5037790;28;20025;-79
2022/07/30 12:44:09;;;;;;;1.08;0.75;;;35.60;99.10;;;;;;5030688;28;20021;-80
2022/07/30 12:46:40;;;;;;;1.35;0.60;;;36.90;97.20;;;;;;5037380;28;20031;-82
2022/07/30 12:49:06;;;;;;;0.60;0.60;;;37.80;96.70;;;;;;5030911;28;20057;-79
2022/07/30 12:51:49;;;;;;;0.90;0.50;;;38.00;94.60;;;;;;5045253;28;20556;-80
2022/07/30 12:54:17;;;;;;;0.57;0.57;;;38.00;91.40;;;;;;5033321;28;20040;-81